sensor_id;sensor_type;location;lat;lon;timestamp;pressure;altitude;pressure_sealevel;temperature;humidity
48872;BME280;36154;51.674;7.824;2022-07-23T00:01:00;101072.63;;;26.28;43.96
48872;BME280;36154;51.674;7.824;2022-07-23T00:03:25;101084.81;;;26.27;43.97
48872;BME280;36154;51.674;7.824;2022-07-23T00:05:51;101098.72;;;26.28;43.92
48872;BME280;36154;51.674;7.824;2022-07-23T00:08:17;101102.22;;;26.27;44.38
48872;BME280;36154;51.674;7.824;2022-07-23T00:10:42;101114.34;;;26.28;44.26
48872;BME280;36154;51.674;7.824;2022-07-23T00:13:08;101116.03;;;26.29;43.89
48872;BME280;36154;51.674;7.824;2022-07-23T00:15:33;101094.31;;;26.28;44.37
48872;BME280;36154;51.674;7.824;2022-07-23T00:17:58;101088.34;;;26.26;44.04
48872;BME280;36154;51.674;7.824;2022-07-23T00:20:24;101081.34;;;26.27;44.31
48872;BME280;36154;51.674;7.824;2022-07-23T00:22:54;101070.09;;;26.26;43.98
48872;BME280;36154;51.674;7.824;2022-07-23T00:25:21;101063.09;;;26.27;44.33
48872;BME280;36154;51.674;7.824;2022-07-23T00:27:46;101057.88;;;26.27;44.43
48872;BME280;36154;51.674;7.824;2022-07-23T00:30:12;101049.22;;;26.26;44.43
48872;BME280;36154;51.674;7.824;2022-07-23T00:32:52;101037.91;;;26.26;44.60
48872;BME280;36154;51.674;7.824;2022-07-23T00:35:26;101032.69;;;26.26;44.62
48872;BME280;36154;51.674;7.824;2022-07-23T00:37:51;101020.53;;;26.26;44.61
48872;BME280;36154;51.674;7.824;2022-07-23T00:40:17;101022.25;;;26.26;44.65
48872;BME280;36154;51.674;7.824;2022-07-23T00:42:42;101018.81;;;26.25;44.66
48872;BME280;36154;51.674;7.824;2022-07-23T00:45:08;101024.03;;;26.25;44.39
48872;BME280;36154;51.674;7.824;2022-07-23T00:47:33;101032.69;;;26.26;44.48
48872;BME280;36154;51.674;7.824;2022-07-23T00:49:59;101028.41;;;26.25;44.89
48872;BME280;36154;51.674;7.824;2022-07-23T00:52:25;101026.63;;;26.25;44.73
48872;BME280;36154;51.674;7.824;2022-07-23T00:54:50;101015.38;;;26.25;44.69
48872;BME280;36154;51.674;7.824;2022-07-23T00:57:16;101012.75;;;26.25;44.88
48872;BME280;36154;51.674;7.824;2022-07-23T00:59:41;101015.38;;;26.25;44.96
48872;BME280;36154;51.674;7.824;2022-07-23T01:02:07;101027.47;;;26.26;44.70
48872;BME280;36154;51.674;7.824;2022-07-23T01:04:32;101024.03;;;26.25;45.00
48872;BME280;36154;51.674;7.824;2022-07-23T01:06:58;101022.34;;;26.24;45.18
48872;BME280;36154;51.674;7.824;2022-07-23T01:09:23;101026.63;;;26.25;44.95
48872;BME280;36154;51.674;7.824;2022-07-23T01:11:49;101023.13;;;26.26;45.30
48872;BME280;36154;51.674;7.824;2022-07-23T01:14:17;101023.19;;;26.25;45.07
48872;BME280;36154;51.674;7.824;2022-07-23T01:16:44;101014.53;;;26.24;45.36
48872;BME280;36154;51.674;7.824;2022-07-23T01:19:10;101020.59;;;26.25;45.16
48872;BME280;36154;51.674;7.824;2022-07-23T01:21:38;101022.25;;;26.26;45.31
48872;BME280;36154;51.674;7.824;2022-07-23T01:24:04;101025.81;;;26.25;45.18
48872;BME280;36154;51.674;7.824;2022-07-23T01:26:29;101021.44;;;26.25;45.47
48872;BME280;36154;51.674;7.824;2022-07-23T01:28:55;101017.03;;;26.26;45.40
48872;BME280;36154;51.674;7.824;2022-07-23T01:31:20;101004.94;;;26.25;45.47
48872;BME280;36154;51.674;7.824;2022-07-23T01:33:45;101004.94;;;26.25;45.21
48872;BME280;36154;51.674;7.824;2022-07-23T01:36:11;101010.16;;;26.25;45.13
48872;BME280;36154;51.674;7.824;2022-07-23T01:38:36;101001.41;;;26.26;45.40
48872;BME280;36154;51.674;7.824;2022-07-23T01:41:02;100999.72;;;26.25;45.66
48872;BME280;36154;51.674;7.824;2022-07-23T01:43:27;100994.50;;;26.25;45.59
48872;BME280;36154;51.674;7.824;2022-07-23T01:45:52;101002.34;;;26.25;45.76
48872;BME280;36154;51.674;7.824;2022-07-23T01:48:18;101005.84;;;26.24;45.53
48872;BME280;36154;51.674;7.824;2022-07-23T01:50:43;100999.72;;;26.25;45.44
48872;BME280;36154;51.674;7.824;2022-07-23T01:53:08;100994.50;;;26.25;45.76
48872;BME280;36154;51.674;7.824;2022-07-23T01:55:34;100990.19;;;26.24;45.83
48872;BME280;36154;51.674;7.824;2022-07-23T01:57:59;100989.28;;;26.25;45.67
48872;BME280;36154;51.674;7.824;2022-07-23T02:00:24;100983.25;;;26.24;45.72
48872;BME280;36154;51.674;7.824;2022-07-23T02:02:50;100991.06;;;26.24;45.51
48872;BME280;36154;51.674;7.824;2022-07-23T02:05:15;100990.19;;;26.24;45.92
48872;BME280;36154;51.674;7.824;2022-07-23T02:07:40;101001.41;;;26.26;45.97
48872;BME280;36154;51.674;7.824;2022-07-23T02:10:06;100991.06;;;26.24;45.83
48872;BME280;36154;51.674;7.824;2022-07-23T02:12:31;100984.06;;;26.25;45.87
48872;BME280;36154;51.674;7.824;2022-07-23T02:14:57;100989.28;;;26.25;45.79
48872;BME280;36154;51.674;7.824;2022-07-23T02:17:22;100994.50;;;26.25;45.93
48872;BME280;36154;51.674;7.824;2022-07-23T02:19:47;100986.69;;;26.25;45.54
48872;BME280;36154;51.674;7.824;2022-07-23T02:22:12;100989.28;;;26.25;45.62
48872;BME280;36154;51.674;7.824;2022-07-23T02:24:38;100993.56;;;26.26;45.68
48872;BME280;36154;51.674;7.824;2022-07-23T02:27:03;100993.66;;;26.24;45.84
48872;BME280;36154;51.674;7.824;2022-07-23T02:29:28;100989.28;;;26.25;45.74
48872;BME280;36154;51.674;7.824;2022-07-23T02:31:53;100990.13;;;26.25;45.78
48872;BME280;36154;51.674;7.824;2022-07-23T02:34:19;100980.63;;;26.24;45.63
48872;BME280;36154;51.674;7.824;2022-07-23T02:36:44;100982.38;;;26.24;45.71
48872;BME280;36154;51.674;7.824;2022-07-23T02:39:09;100982.38;;;26.24;46.00
48872;BME280;36154;51.674;7.824;2022-07-23T02:41:35;100974.53;;;26.24;46.22
48872;BME280;36154;51.674;7.824;2022-07-23T02:44:00;100972.88;;;26.23;45.73
48872;BME280;36154;51.674;7.824;2022-07-23T02:46:26;100980.69;;;26.23;45.83
48872;BME280;36154;51.674;7.824;2022-07-23T02:48:51;100991.13;;;26.23;46.11
48872;BME280;36154;51.674;7.824;2022-07-23T02:51:16;100990.19;;;26.24;46.11
48872;BME280;36154;51.674;7.824;2022-07-23T02:53:41;100990.25;;;26.22;45.68
48872;BME280;36154;51.674;7.824;2022-07-23T02:56:07;100991.13;;;26.23;46.12
48872;BME280;36154;51.674;7.824;2022-07-23T02:58:32;100991.13;;;26.23;46.10
48872;BME280;36154;51.674;7.824;2022-07-23T03:00:58;100991.97;;;26.23;46.34
48872;BME280;36154;51.674;7.824;2022-07-23T03:03:23;100980.69;;;26.23;45.80
48872;BME280;36154;51.674;7.824;2022-07-23T03:05:48;100977.16;;;26.24;45.94
48872;BME280;36154;51.674;7.824;2022-07-23T03:08:14;100986.75;;;26.23;46.18
48872;BME280;36154;51.674;7.824;2022-07-23T03:10:39;100987.59;;;26.24;46.12
48872;BME280;36154;51.674;7.824;2022-07-23T03:13:04;100987.59;;;26.24;46.43
48872;BME280;36154;51.674;7.824;2022-07-23T03:15:30;100991.13;;;26.23;46.38
48872;BME280;36154;51.674;7.824;2022-07-23T03:17:55;100994.56;;;26.23;46.45
48872;BME280;36154;51.674;7.824;2022-07-23T03:20:20;100990.25;;;26.22;46.35
48872;BME280;36154;51.674;7.824;2022-07-23T03:22:45;100985.91;;;26.23;46.40
48872;BME280;36154;51.674;7.824;2022-07-23T03:25:11;100985.91;;;26.23;46.18
48872;BME280;36154;51.674;7.824;2022-07-23T03:27:36;100981.53;;;26.23;46.13
48872;BME280;36154;51.674;7.824;2022-07-23T03:30:02;100983.31;;;26.23;46.33
48872;BME280;36154;51.674;7.824;2022-07-23T03:32:28;100990.19;;;26.24;46.51
48872;BME280;36154;51.674;7.824;2022-07-23T03:34:54;100987.59;;;26.24;46.25
48872;BME280;36154;51.674;7.824;2022-07-23T03:37:20;100980.81;;;26.20;46.07
48872;BME280;36154;51.674;7.824;2022-07-23T03:39:45;100985.91;;;26.23;45.74
48872;BME280;36154;51.674;7.824;2022-07-23T03:42:10;100991.97;;;26.23;46.11
48872;BME280;36154;51.674;7.824;2022-07-23T03:44:36;100980.69;;;26.23;46.26
48872;BME280;36154;51.674;7.824;2022-07-23T03:47:03;100990.19;;;26.24;46.50
48872;BME280;36154;51.674;7.824;2022-07-23T03:49:28;100991.13;;;26.23;46.26
48872;BME280;36154;51.674;7.824;2022-07-23T03:51:53;100996.34;;;26.23;46.46
48872;BME280;36154;51.674;7.824;2022-07-23T03:54:19;100998.03;;;26.24;46.09
48872;BME280;36154;51.674;7.824;2022-07-23T03:56:44;100991.13;;;26.23;46.24
48872;BME280;36154;51.674;7.824;2022-07-23T03:59:10;100991.13;;;26.23;46.12
48872;BME280;36154;51.674;7.824;2022-07-23T04:01:35;100998.03;;;26.24;46.32
48872;BME280;36154;51.674;7.824;2022-07-23T04:04:01;100993.72;;;26.23;46.40
48872;BME280;36154;51.674;7.824;2022-07-23T04:06:27;100989.41;;;26.22;46.44
48872;BME280;36154;51.674;7.824;2022-07-23T04:08:52;100985.91;;;26.23;45.90
48872;BME280;36154;51.674;7.824;2022-07-23T04:11:17;100986.75;;;26.23;46.22
48872;BME280;36154;51.674;7.824;2022-07-23T04:13:43;100986.75;;;26.23;46.02
48872;BME280;36154;51.674;7.824;2022-07-23T04:16:08;100985.91;;;26.23;45.98
48872;BME280;36154;51.674;7.824;2022-07-23T04:18:33;100995.47;;;26.22;45.94
48872;BME280;36154;51.674;7.824;2022-07-23T04:20:59;100985.91;;;26.23;46.37
48872;BME280;36154;51.674;7.824;2022-07-23T04:23:24;100989.41;;;26.22;45.97
48872;BME280;36154;51.674;7.824;2022-07-23T04:25:49;100993.72;;;26.23;45.95
48872;BME280;36154;51.674;7.824;2022-07-23T04:28:15;100997.19;;;26.23;45.90
48872;BME280;36154;51.674;7.824;2022-07-23T04:30:40;100992.88;;;26.22;45.94
48872;BME280;36154;51.674;7.824;2022-07-23T04:33:05;101001.56;;;26.23;46.23
48872;BME280;36154;51.674;7.824;2022-07-23T04:35:33;101002.41;;;26.23;46.03
48872;BME280;36154;51.674;7.824;2022-07-23T04:37:58;101005.00;;;26.23;45.95
48872;BME280;36154;51.674;7.824;2022-07-23T04:40:24;101006.78;;;26.23;46.04
48872;BME280;36154;51.674;7.824;2022-07-23T04:42:49;101001.56;;;26.23;45.82
48872;BME280;36154;51.674;7.824;2022-07-23T04:45:15;101004.16;;;26.23;46.27
48872;BME280;36154;51.674;7.824;2022-07-23T04:47:40;101001.56;;;26.23;46.22
48872;BME280;36154;51.674;7.824;2022-07-23T04:50:05;101005.06;;;26.22;45.72
48872;BME280;36154;51.674;7.824;2022-07-23T04:52:31;101015.50;;;26.22;46.11
48872;BME280;36154;51.674;7.824;2022-07-23T04:54:56;101016.34;;;26.22;45.81
48872;BME280;36154;51.674;7.824;2022-07-23T04:57:21;101020.72;;;26.22;45.97
48872;BME280;36154;51.674;7.824;2022-07-23T04:59:47;101017.22;;;26.23;45.98
48872;BME280;36154;51.674;7.824;2022-07-23T05:02:12;101021.56;;;26.22;45.64
48872;BME280;36154;51.674;7.824;2022-07-23T05:04:37;101031.09;;;26.23;45.77
48872;BME280;36154;51.674;7.824;2022-07-23T05:07:03;101022.41;;;26.23;45.67
48872;BME280;36154;51.674;7.824;2022-07-23T05:09:29;101020.72;;;26.22;45.91
48872;BME280;36154;51.674;7.824;2022-07-23T05:11:54;101020.72;;;26.22;45.70
48872;BME280;36154;51.674;7.824;2022-07-23T05:14:19;101022.41;;;26.23;46.12
48872;BME280;36154;51.674;7.824;2022-07-23T05:16:44;101021.56;;;26.22;45.52
48872;BME280;36154;51.674;7.824;2022-07-23T05:19:10;101022.41;;;26.23;45.84
48872;BME280;36154;51.674;7.824;2022-07-23T05:21:35;101031.16;;;26.22;45.84
48872;BME280;36154;51.674;7.824;2022-07-23T05:24:00;101028.53;;;26.22;45.98
48872;BME280;36154;51.674;7.824;2022-07-23T05:26:26;101030.31;;;26.21;45.47
48872;BME280;36154;51.674;7.824;2022-07-23T05:28:51;101038.06;;;26.23;45.49
48872;BME280;36154;51.674;7.824;2022-07-23T05:31:16;101043.28;;;26.23;45.68
48872;BME280;36154;51.674;7.824;2022-07-23T05:33:42;101042.41;;;26.22;45.61
48872;BME280;36154;51.674;7.824;2022-07-23T05:36:07;101037.19;;;26.22;45.88
48872;BME280;36154;51.674;7.824;2022-07-23T05:38:33;101032.84;;;26.23;45.82
48872;BME280;36154;51.674;7.824;2022-07-23T05:40:58;101038.06;;;26.23;45.74
48872;BME280;36154;51.674;7.824;2022-07-23T05:43:24;101041.56;;;26.22;45.62
48872;BME280;36154;51.674;7.824;2022-07-23T05:45:49;101046.78;;;26.22;45.62
48872;BME280;36154;51.674;7.824;2022-07-23T05:48:15;101053.72;;;26.23;45.28
48872;BME280;36154;51.674;7.824;2022-07-23T05:50:40;101058.94;;;26.23;45.48
48872;BME280;36154;51.674;7.824;2022-07-23T05:53:05;101060.59;;;26.24;45.48
48872;BME280;36154;51.674;7.824;2022-07-23T05:55:31;101059.78;;;26.23;45.40
48872;BME280;36154;51.674;7.824;2022-07-23T05:57:57;101057.16;;;26.23;45.46
48872;BME280;36154;51.674;7.824;2022-07-23T06:00:23;101053.72;;;26.23;45.16
48872;BME280;36154;51.674;7.824;2022-07-23T06:02:48;101054.56;;;26.23;45.31
48872;BME280;36154;51.674;7.824;2022-07-23T06:05:14;101054.56;;;26.23;45.91
48872;BME280;36154;51.674;7.824;2022-07-23T06:07:39;101060.59;;;26.24;45.58
48872;BME280;36154;51.674;7.824;2022-07-23T06:10:05;101057.09;;;26.25;45.41
48872;BME280;36154;51.674;7.824;2022-07-23T06:12:31;101062.31;;;26.25;45.41
48872;BME280;36154;51.674;7.824;2022-07-23T06:14:56;101056.25;;;26.24;45.73
48872;BME280;36154;51.674;7.824;2022-07-23T06:17:21;101062.31;;;26.25;45.34
48872;BME280;36154;51.674;7.824;2022-07-23T06:19:47;101067.53;;;26.25;45.16
48872;BME280;36154;51.674;7.824;2022-07-23T06:22:12;101069.22;;;26.26;45.43
48872;BME280;36154;51.674;7.824;2022-07-23T06:24:38;101063.22;;;26.24;45.27
48872;BME280;36154;51.674;7.824;2022-07-23T06:27:03;101070.13;;;26.25;45.08
48872;BME280;36154;51.674;7.824;2022-07-23T06:29:29;101073.59;;;26.25;45.32
48872;BME280;36154;51.674;7.824;2022-07-23T06:31:54;101077.13;;;26.24;45.18
48872;BME280;36154;51.674;7.824;2022-07-23T06:34:19;101081.41;;;26.25;45.22
48872;BME280;36154;51.674;7.824;2022-07-23T06:36:44;101084.03;;;26.25;45.03
48872;BME280;36154;51.674;7.824;2022-07-23T06:39:10;101082.41;;;26.23;45.19
48872;BME280;36154;51.674;7.824;2022-07-23T06:41:35;101091.84;;;26.25;45.26
48872;BME280;36154;51.674;7.824;2022-07-23T06:44:00;101092.69;;;26.26;44.86
48872;BME280;36154;51.674;7.824;2022-07-23T06:46:26;101088.34;;;26.26;45.01
48872;BME280;36154;51.674;7.824;2022-07-23T06:48:51;101090.06;;;26.26;44.89
48872;BME280;36154;51.674;7.824;2022-07-23T06:51:16;101090.94;;;26.26;45.32
48872;BME280;36154;51.674;7.824;2022-07-23T06:53:42;101090.94;;;26.26;44.89
48872;BME280;36154;51.674;7.824;2022-07-23T06:56:07;101091.78;;;26.27;44.78
48872;BME280;36154;51.674;7.824;2022-07-23T06:58:32;101089.19;;;26.27;44.81
48872;BME280;36154;51.674;7.824;2022-07-23T07:00:58;101091.78;;;26.27;45.03
48872;BME280;36154;51.674;7.824;2022-07-23T07:03:23;101087.41;;;26.27;44.78
48872;BME280;36154;51.674;7.824;2022-07-23T07:05:48;101087.41;;;26.27;44.79
48872;BME280;36154;51.674;7.824;2022-07-23T07:08:15;101091.78;;;26.27;45.14
48872;BME280;36154;51.674;7.824;2022-07-23T07:10:40;101089.13;;;26.28;44.87
48872;BME280;36154;51.674;7.824;2022-07-23T07:13:06;101098.72;;;26.28;45.23
48872;BME280;36154;51.674;7.824;2022-07-23T07:15:31;101093.50;;;26.28;45.03
48872;BME280;36154;51.674;7.824;2022-07-23T07:17:56;101089.94;;;26.29;45.21
48872;BME280;36154;51.674;7.824;2022-07-23T07:20:24;101088.28;;;26.28;45.28
48872;BME280;36154;51.674;7.824;2022-07-23T07:22:49;101104.75;;;26.28;45.41
48872;BME280;36154;51.674;7.824;2022-07-23T07:25:15;101098.72;;;26.28;44.93
48872;BME280;36154;51.674;7.824;2022-07-23T07:27:40;101100.38;;;26.29;45.34
48872;BME280;36154;51.674;7.824;2022-07-23T07:30:07;101105.59;;;26.29;45.06
48872;BME280;36154;51.674;7.824;2022-07-23T07:32:32;101113.38;;;26.31;44.92
48872;BME280;36154;51.674;7.824;2022-07-23T07:34:58;101108.16;;;26.31;45.33
48872;BME280;36154;51.674;7.824;2022-07-23T07:37:23;101106.47;;;26.29;44.87
48872;BME280;36154;51.674;7.824;2022-07-23T07:39:49;101105.53;;;26.31;44.92
48872;BME280;36154;51.674;7.824;2022-07-23T07:42:14;101109.03;;;26.31;45.09
48872;BME280;36154;51.674;7.824;2022-07-23T07:44:39;101112.47;;;26.32;44.98
48872;BME280;36154;51.674;7.824;2022-07-23T07:47:05;101110.75;;;26.31;44.84
48872;BME280;36154;51.674;7.824;2022-07-23T07:49:30;101119.44;;;26.31;45.02
48872;BME280;36154;51.674;7.824;2022-07-23T07:51:55;101119.44;;;26.31;45.01
48872;BME280;36154;51.674;7.824;2022-07-23T07:54:20;101123.81;;;26.31;44.67
48872;BME280;36154;51.674;7.824;2022-07-23T07:56:46;101122.97;;;26.30;45.01
48872;BME280;36154;51.674;7.824;2022-07-23T07:59:12;101135.09;;;26.31;44.62
48872;BME280;36154;51.674;7.824;2022-07-23T08:01:39;101133.28;;;26.33;44.63
48872;BME280;36154;51.674;7.824;2022-07-23T08:04:05;101134.06;;;26.35;45.04
48872;BME280;36154;51.674;7.824;2022-07-23T08:06:30;101143.59;;;26.36;44.67
48872;BME280;36154;51.674;7.824;2022-07-23T08:08:56;101127.94;;;26.36;44.94
48872;BME280;36154;51.674;7.824;2022-07-23T08:11:21;101141.88;;;26.35;44.78
48872;BME280;36154;51.674;7.824;2022-07-23T08:13:46;101139.22;;;26.37;44.76
48872;BME280;36154;51.674;7.824;2022-07-23T08:16:12;101135.75;;;26.36;44.60
48872;BME280;36154;51.674;7.824;2022-07-23T08:18:37;101142.66;;;26.37;44.83
48872;BME280;36154;51.674;7.824;2022-07-23T08:21:03;101138.22;;;26.39;44.63
48872;BME280;36154;51.674;7.824;2022-07-23T08:23:30;101135.66;;;26.38;44.57
48872;BME280;36154;51.674;7.824;2022-07-23T08:25:56;101135.59;;;26.39;44.48
48872;BME280;36154;51.674;7.824;2022-07-23T08:28:22;101139.94;;;26.40;44.49
48872;BME280;36154;51.674;7.824;2022-07-23T08:30:47;101146.91;;;26.40;44.51
48872;BME280;36154;51.674;7.824;2022-07-23T08:33:15;101156.41;;;26.41;44.71
48872;BME280;36154;51.674;7.824;2022-07-23T08:35:48;101157.28;;;26.41;44.57
48872;BME280;36154;51.674;7.824;2022-07-23T08:38:17;101158.13;;;26.42;44.29
48872;BME280;36154;51.674;7.824;2022-07-23T08:40:45;101157.28;;;26.41;44.42
48872;BME280;36154;51.674;7.824;2022-07-23T08:43:15;101155.50;;;26.42;44.29
48872;BME280;36154;51.674;7.824;2022-07-23T08:45:46;101164.19;;;26.42;44.12
48872;BME280;36154;51.674;7.824;2022-07-23T08:48:14;101164.13;;;26.44;44.07
48872;BME280;36154;51.674;7.824;2022-07-23T08:50:49;101164.19;;;26.42;43.94
48872;BME280;36154;51.674;7.824;2022-07-23T08:53:16;101164.19;;;26.42;43.98
48872;BME280;36154;51.674;7.824;2022-07-23T08:55:49;101160.69;;;26.43;43.93
48872;BME280;36154;51.674;7.824;2022-07-23T08:58:15;101164.19;;;26.42;43.95
48872;BME280;36154;51.674;7.824;2022-07-23T09:00:41;101168.56;;;26.42;44.34
48872;BME280;36154;51.674;7.824;2022-07-23T09:03:06;101165.13;;;26.41;43.94
48872;BME280;36154;51.674;7.824;2022-07-23T09:05:32;101164.19;;;26.42;44.12
48872;BME280;36154;51.674;7.824;2022-07-23T09:08:14;101161.56;;;26.42;43.94
48872;BME280;36154;51.674;7.824;2022-07-23T09:15:53;101167.56;;;26.44;43.73
48872;BME280;36154;51.674;7.824;2022-07-23T09:18:27;101164.06;;;26.45;43.58
48872;BME280;36154;51.674;7.824;2022-07-23T09:20:56;101163.28;;;26.43;43.84
48872;BME280;36154;51.674;7.824;2022-07-23T09:23:51;101165.13;;;26.41;43.33
48872;BME280;36154;51.674;7.824;2022-07-23T09:26:20;101165.94;;;26.42;43.22
48872;BME280;36154;51.674;7.824;2022-07-23T09:28:55;101172.94;;;26.41;43.43
48872;BME280;36154;51.674;7.824;2022-07-23T09:31:21;101156.41;;;26.41;43.37
48872;BME280;36154;51.674;7.824;2022-07-23T09:33:47;101162.50;;;26.41;43.21
48872;BME280;36154;51.674;7.824;2022-07-23T09:36:12;101167.72;;;26.41;43.22
48872;BME280;36154;51.674;7.824;2022-07-23T09:38:49;101161.63;;;26.41;43.21
48872;BME280;36154;51.674;7.824;2022-07-23T09:41:14;101160.78;;;26.40;43.31
48872;BME280;36154;51.674;7.824;2022-07-23T09:43:40;101166.00;;;26.40;42.97
48872;BME280;36154;51.674;7.824;2022-07-23T09:48:45;101160.78;;;26.40;43.15
48872;BME280;36154;51.674;7.824;2022-07-23T09:51:10;101166.84;;;26.41;42.96
48872;BME280;36154;51.674;7.824;2022-07-23T09:53:35;101162.50;;;26.41;43.23
48872;BME280;36154;51.674;7.824;2022-07-23T09:56:01;101167.72;;;26.41;42.96
48872;BME280;36154;51.674;7.824;2022-07-23T09:58:29;101167.72;;;26.41;42.91
48872;BME280;36154;51.674;7.824;2022-07-23T10:00:55;101167.72;;;26.41;42.72
48872;BME280;36154;51.674;7.824;2022-07-23T10:03:23;101167.72;;;26.41;42.90
48872;BME280;36154;51.674;7.824;2022-07-23T10:05:49;101172.06;;;26.41;42.95
48872;BME280;36154;51.674;7.824;2022-07-23T10:08:17;101171.22;;;26.40;42.83
48872;BME280;36154;51.674;7.824;2022-07-23T10:10:45;101175.59;;;26.40;42.32
48872;BME280;36154;51.674;7.824;2022-07-23T10:13:11;101181.66;;;26.40;42.46
48872;BME280;36154;51.674;7.824;2022-07-23T10:15:55;101173.84;;;26.40;42.41
48872;BME280;36154;51.674;7.824;2022-07-23T10:18:21;101176.44;;;26.40;42.27
48872;BME280;36154;51.674;7.824;2022-07-23T10:20:47;101182.50;;;26.41;42.37
48872;BME280;36154;51.674;7.824;2022-07-23T10:23:42;101174.75;;;26.39;42.22
48872;BME280;36154;51.674;7.824;2022-07-23T10:26:24;101164.31;;;26.39;42.32
48872;BME280;36154;51.674;7.824;2022-07-23T10:32:02;101159.09;;;26.39;42.42
48872;BME280;36154;51.674;7.824;2022-07-23T10:34:49;101152.19;;;26.38;41.90
48872;BME280;36154;51.674;7.824;2022-07-23T10:37:25;101146.97;;;26.38;42.32
48872;BME280;36154;51.674;7.824;2022-07-23T10:42:35;101162.63;;;26.38;41.93
48872;BME280;36154;51.674;7.824;2022-07-23T10:45:25;101159.09;;;26.39;41.91
48872;BME280;36154;51.674;7.824;2022-07-23T10:47:51;101153.88;;;26.39;41.99
48872;BME280;36154;51.674;7.824;2022-07-23T10:58:04;101155.56;;;26.40;41.88
48872;BME280;36154;51.674;7.824;2022-07-23T11:00:31;101156.41;;;26.41;41.88
48872;BME280;36154;51.674;7.824;2022-07-23T11:02:59;101158.19;;;26.40;41.50
48872;BME280;36154;51.674;7.824;2022-07-23T11:05:42;101155.56;;;26.40;41.54
48872;BME280;36154;51.674;7.824;2022-07-23T11:24:08;101152.97;;;26.40;41.68
48872;BME280;36154;51.674;7.824;2022-07-23T11:32:01;101142.47;;;26.42;41.67
48872;BME280;36154;51.674;7.824;2022-07-23T11:37:03;101138.09;;;26.42;41.31
48872;BME280;36154;51.674;7.824;2022-07-23T11:39:30;101145.03;;;26.43;40.99
48872;BME280;36154;51.674;7.824;2022-07-23T11:41:57;101138.09;;;26.42;41.25
48872;BME280;36154;51.674;7.824;2022-07-23T11:44:26;101133.75;;;26.43;41.05
48872;BME280;36154;51.674;7.824;2022-07-23T11:46:59;101139.81;;;26.43;41.41
48872;BME280;36154;51.674;7.824;2022-07-23T11:49:26;101141.47;;;26.44;41.13
48872;BME280;36154;51.674;7.824;2022-07-23T11:52:09;101129.38;;;26.43;41.45
48872;BME280;36154;51.674;7.824;2022-07-23T11:54:36;101132.03;;;26.42;41.02
48872;BME280;36154;51.674;7.824;2022-07-23T11:57:03;101136.25;;;26.44;40.95
48872;BME280;36154;51.674;7.824;2022-07-23T11:59:32;101139.69;;;26.46;41.26
48872;BME280;36154;51.674;7.824;2022-07-23T12:01:59;101144.91;;;26.46;41.52
48872;BME280;36154;51.674;7.824;2022-07-23T12:04:47;101142.22;;;26.48;41.71
48872;BME280;36154;51.674;7.824;2022-07-23T12:07:27;101142.16;;;26.50;41.59
48872;BME280;36154;51.674;7.824;2022-07-23T12:09:53;101144.78;;;26.50;41.57
48872;BME280;36154;51.674;7.824;2022-07-23T12:12:19;101133.41;;;26.51;41.82
48872;BME280;36154;51.674;7.824;2022-07-23T12:14:49;101133.41;;;26.51;41.70
48872;BME280;36154;51.674;7.824;2022-07-23T12:17:15;101141.09;;;26.54;41.74
48872;BME280;36154;51.674;7.824;2022-07-23T12:19:40;101144.50;;;26.56;41.47
48872;BME280;36154;51.674;7.824;2022-07-23T12:22:06;101143.66;;;26.55;41.46
48872;BME280;36154;51.674;7.824;2022-07-23T12:25:02;101134.06;;;26.56;41.18
48872;BME280;36154;51.674;7.824;2022-07-23T12:27:29;101134.84;;;26.58;41.29
48872;BME280;36154;51.674;7.824;2022-07-23T12:29:55;101138.31;;;26.58;41.26
48872;BME280;36154;51.674;7.824;2022-07-23T12:35:07;101141.69;;;26.60;41.30
48872;BME280;36154;51.674;7.824;2022-07-23T12:37:38;101138.16;;;26.63;41.26
48872;BME280;36154;51.674;7.824;2022-07-23T12:42:48;101134.63;;;26.64;41.25
48872;BME280;36154;51.674;7.824;2022-07-23T12:45:14;101132.84;;;26.64;41.30
48872;BME280;36154;51.674;7.824;2022-07-23T12:48:02;101131.09;;;26.65;41.26
48872;BME280;36154;51.674;7.824;2022-07-23T12:51:00;101129.34;;;26.65;41.18
48872;BME280;36154;51.674;7.824;2022-07-23T12:53:27;101138.81;;;26.68;41.17
48872;BME280;36154;51.674;7.824;2022-07-23T12:56:08;101131.69;;;26.72;41.31
48872;BME280;36154;51.674;7.824;2022-07-23T13:01:22;101135.41;;;26.87;40.96
48872;BME280;36154;51.674;7.824;2022-07-23T13:06:46;101134.09;;;26.97;40.67
48872;BME280;36154;51.674;7.824;2022-07-23T13:09:17;101131.34;;;27.00;40.89
48872;BME280;36154;51.674;7.824;2022-07-23T13:11:44;101139.00;;;27.03;40.97
48872;BME280;36154;51.674;7.824;2022-07-23T13:14:11;101137.22;;;27.05;41.13
48872;BME280;36154;51.674;7.824;2022-07-23T13:16:38;101136.28;;;27.06;40.93
48872;BME280;36154;51.674;7.824;2022-07-23T13:19:04;101128.44;;;27.06;40.90
48872;BME280;36154;51.674;7.824;2022-07-23T13:21:29;101135.38;;;27.07;40.53
48872;BME280;36154;51.674;7.824;2022-07-23T13:23:55;101141.44;;;27.08;40.55
48872;BME280;36154;51.674;7.824;2022-07-23T13:26:21;101142.25;;;27.08;40.42
48872;BME280;36154;51.674;7.824;2022-07-23T13:28:46;101147.50;;;27.08;40.96
48872;BME280;36154;51.674;7.824;2022-07-23T13:31:12;101144.09;;;27.06;40.66
48872;BME280;36154;51.674;7.824;2022-07-23T13:33:38;101140.53;;;27.09;40.45
48872;BME280;36154;51.674;7.824;2022-07-23T13:36:04;101139.66;;;27.08;40.39
48872;BME280;36154;51.674;7.824;2022-07-23T13:38:29;101139.59;;;27.10;40.47
48872;BME280;36154;51.674;7.824;2022-07-23T13:40:55;101140.41;;;27.12;40.50
48872;BME280;36154;51.674;7.824;2022-07-23T13:43:23;101136.78;;;27.14;40.44
48872;BME280;36154;51.674;7.824;2022-07-23T13:45:50;101143.72;;;27.15;40.43